createdAt,value
2017-10-15T00:00:48.498Z,0.00
2017-10-15T00:01:48.498Z,0.00
2017-10-15T00:02:48.483Z,0.00
2017-10-15T00:03:48.477Z,0.00
2017-10-15T00:04:48.476Z,0.00
2017-10-15T00:05:48.465Z,0.00
2017-10-15T00:06:48.465Z,0.00
2017-10-15T00:07:48.450Z,0.00
2017-10-15T00:08:48.445Z,0.00
2017-10-15T00:09:48.437Z,0.00
2017-10-15T00:10:48.428Z,0.00
2017-10-15T00:11:48.429Z,0.00
2017-10-15T00:12:48.416Z,0.00
2017-10-15T00:13:48.409Z,0.00
2017-10-15T00:14:48.406Z,0.00
2017-10-15T00:15:48.401Z,0.00
2017-10-15T00:16:48.388Z,0.00
2017-10-15T00:17:48.382Z,0.00
2017-10-15T00:18:48.375Z,0.00
2017-10-15T00:19:48.366Z,0.00
2017-10-15T00:20:48.360Z,0.00
2017-10-15T00:21:48.353Z,0.00
2017-10-15T00:22:48.345Z,0.00
2017-10-15T00:23:48.340Z,0.00
2017-10-15T00:24:48.333Z,0.00
2017-10-15T00:25:48.325Z,0.00
2017-10-15T00:26:48.317Z,0.00
2017-10-15T00:27:48.314Z,0.00
2017-10-15T00:28:48.305Z,0.00
2017-10-15T00:29:48.298Z,0.00
2017-10-15T00:30:48.313Z,0.00
2017-10-15T00:31:48.285Z,0.00
2017-10-15T00:32:48.276Z,0.00
2017-10-15T00:33:48.271Z,0.00
2017-10-15T00:34:48.266Z,0.00
2017-10-15T00:35:48.257Z,0.00
2017-10-15T00:36:48.248Z,0.00
2017-10-15T00:37:48.241Z,0.00
2017-10-15T00:38:48.234Z,0.00
2017-10-15T00:39:48.231Z,0.00
2017-10-15T00:40:48.221Z,0.00
2017-10-15T00:41:48.214Z,0.00
2017-10-15T00:42:48.206Z,0.00
2017-10-15T00:43:48.199Z,0.00
2017-10-15T00:44:48.193Z,0.00
2017-10-15T00:45:48.186Z,0.00
2017-10-15T00:46:48.178Z,0.00
2017-10-15T00:47:48.174Z,0.00
2017-10-15T00:48:48.163Z,0.00
2017-10-15T00:49:48.159Z,0.00
2017-10-15T00:50:48.160Z,0.00
2017-10-15T00:51:48.147Z,0.00
2017-10-15T00:52:48.137Z,0.00
2017-10-15T00:53:48.129Z,0.00
2017-10-15T00:54:48.127Z,0.00
2017-10-15T00:55:48.115Z,0.00
2017-10-15T00:56:48.108Z,0.00
2017-10-15T00:57:48.103Z,0.00
2017-10-15T00:58:48.100Z,0.00
2017-10-15T00:59:48.086Z,0.00
2017-10-15T01:00:48.083Z,0.00
2017-10-15T01:01:48.076Z,0.00
2017-10-15T01:02:48.069Z,0.00
2017-10-15T01:03:48.066Z,0.00
2017-10-15T01:04:48.053Z,0.00
2017-10-15T01:05:48.052Z,0.00
2017-10-15T01:06:48.035Z,0.00
2017-10-15T01:07:48.028Z,0.00
2017-10-15T01:08:48.022Z,0.00
2017-10-15T01:09:48.014Z,0.00
2017-10-15T01:10:48.012Z,0.00
2017-10-15T01:11:48.001Z,0.00
2017-10-15T01:12:47.998Z,0.00
2017-10-15T01:13:47.987Z,0.00
2017-10-15T01:14:47.979Z,0.00
2017-10-15T01:15:47.971Z,0.00
2017-10-15T01:16:47.965Z,0.00
2017-10-15T01:17:47.964Z,0.00
2017-10-15T01:18:47.949Z,0.00
2017-10-15T01:19:47.946Z,0.00
2017-10-15T01:20:47.936Z,0.00
2017-10-15T01:21:47.928Z,0.00
2017-10-15T01:22:47.921Z,0.00
2017-10-15T01:23:47.917Z,0.00
2017-10-15T01:24:47.911Z,0.00
2017-10-15T01:25:47.901Z,0.00
2017-10-15T01:26:47.893Z,0.00
2017-10-15T01:27:47.887Z,0.00
2017-10-15T01:28:47.878Z,0.00
2017-10-15T01:29:47.872Z,0.00
2017-10-15T01:30:47.866Z,0.00
2017-10-15T01:31:47.857Z,0.00
2017-10-15T01:32:47.850Z,0.00
2017-10-15T01:33:47.843Z,0.00
2017-10-15T01:34:47.834Z,0.00
2017-10-15T01:35:47.826Z,0.00
2017-10-15T01:36:47.826Z,0.00
2017-10-15T01:37:47.812Z,0.00
2017-10-15T01:38:47.807Z,0.00
2017-10-15T01:39:47.797Z,0.00
2017-10-15T01:40:47.795Z,0.00
2017-10-15T01:41:47.794Z,0.00
2017-10-15T01:42:47.787Z,0.00
2017-10-15T01:43:47.768Z,0.00
2017-10-15T01:44:47.763Z,0.00
2017-10-15T01:45:47.757Z,0.00
2017-10-15T01:46:47.766Z,0.00
2017-10-15T01:47:47.742Z,0.00
2017-10-15T01:48:47.732Z,0.00
2017-10-15T01:49:47.729Z,0.00
2017-10-15T01:50:47.722Z,0.00
2017-10-15T01:51:47.711Z,0.00
2017-10-15T01:52:47.702Z,0.00
2017-10-15T01:53:47.702Z,0.00
2017-10-15T01:54:47.710Z,0.00
2017-10-15T01:55:47.680Z,0.00
2017-10-15T01:56:47.673Z,0.00
2017-10-15T01:57:47.668Z,0.00
2017-10-15T01:58:47.660Z,0.00
2017-10-15T01:59:47.653Z,0.00
2017-10-15T02:00:47.644Z,0.00
2017-10-15T02:01:47.637Z,0.00
2017-10-15T02:02:47.630Z,0.00
2017-10-15T02:03:47.621Z,0.00
2017-10-15T02:04:47.615Z,0.00
2017-10-15T02:05:47.607Z,0.00
2017-10-15T02:06:47.602Z,0.00
2017-10-15T02:07:47.593Z,0.00
2017-10-15T02:08:47.583Z,0.00
2017-10-15T02:09:47.577Z,0.00
2017-10-15T02:10:47.567Z,0.00
2017-10-15T02:11:47.563Z,0.00
2017-10-15T02:12:47.553Z,0.00
2017-10-15T02:13:47.548Z,0.00
2017-10-15T02:14:47.540Z,0.00
2017-10-15T02:15:47.530Z,0.00
2017-10-15T02:16:47.523Z,0.00
2017-10-15T02:17:47.519Z,0.00
2017-10-15T02:18:47.507Z,0.00
2017-10-15T02:19:47.500Z,0.00
2017-10-15T02:20:47.493Z,0.00
2017-10-15T02:21:47.488Z,0.00
2017-10-15T02:22:47.479Z,0.00
2017-10-15T02:23:47.469Z,0.00
2017-10-15T02:24:47.464Z,0.00
2017-10-15T02:25:47.461Z,0.00
2017-10-15T02:26:47.448Z,0.00
2017-10-15T02:27:47.447Z,0.00
2017-10-15T02:28:47.473Z,0.00
2017-10-15T02:29:47.427Z,0.00
2017-10-15T02:30:47.422Z,0.00
2017-10-15T02:31:47.410Z,0.00
2017-10-15T02:32:47.403Z,0.00
2017-10-15T02:33:47.397Z,0.00
2017-10-15T02:34:47.385Z,0.00
2017-10-15T02:35:47.379Z,0.00
2017-10-15T02:36:47.371Z,0.00
2017-10-15T02:37:47.366Z,0.00
2017-10-15T02:38:47.356Z,0.00
2017-10-15T02:39:47.350Z,0.00
2017-10-15T02:40:47.340Z,0.00
2017-10-15T02:41:47.334Z,0.00
2017-10-15T02:42:47.328Z,0.00
2017-10-15T02:43:47.321Z,0.00
2017-10-15T02:44:47.311Z,0.00
2017-10-15T02:45:47.307Z,0.00
2017-10-15T02:46:47.296Z,0.00
2017-10-15T02:47:47.288Z,0.00
2017-10-15T02:48:47.280Z,0.00
2017-10-15T02:49:47.272Z,0.00
2017-10-15T02:50:47.266Z,0.00
2017-10-15T02:51:47.258Z,0.00
2017-10-15T02:52:47.250Z,0.00
2017-10-15T02:53:47.243Z,0.00
2017-10-15T02:54:47.234Z,0.00
2017-10-15T02:55:47.226Z,0.00
2017-10-15T02:56:47.218Z,0.00
2017-10-15T02:57:47.214Z,0.00
2017-10-15T02:58:47.205Z,0.00
2017-10-15T02:59:47.198Z,0.00
2017-10-15T03:00:47.190Z,0.00
2017-10-15T03:01:47.180Z,0.00
2017-10-15T03:02:47.172Z,0.00
2017-10-15T03:03:47.166Z,0.00
2017-10-15T03:04:47.157Z,0.00
2017-10-15T03:05:47.153Z,0.00
2017-10-15T03:06:47.142Z,0.00
2017-10-15T03:07:47.134Z,0.00
2017-10-15T03:08:47.127Z,0.00
2017-10-15T03:09:47.124Z,0.00
2017-10-15T03:10:47.114Z,0.00
2017-10-15T03:11:47.102Z,0.00
2017-10-15T03:12:47.095Z,0.00
2017-10-15T03:13:47.088Z,0.00
2017-10-15T03:14:47.090Z,0.00
2017-10-15T03:15:47.073Z,0.00
2017-10-15T03:16:47.062Z,0.00
2017-10-15T03:17:47.056Z,0.00
2017-10-15T03:18:47.048Z,0.00
2017-10-15T03:19:47.049Z,0.00
2017-10-15T03:20:47.030Z,0.00
2017-10-15T03:21:47.025Z,0.00
2017-10-15T03:22:47.020Z,0.00
2017-10-15T03:23:47.009Z,0.00
2017-10-15T03:24:47.007Z,0.00
2017-10-15T03:25:46.992Z,0.00
2017-10-15T03:26:46.985Z,0.00
2017-10-15T03:27:46.977Z,0.00
2017-10-15T03:28:46.971Z,0.00
2017-10-15T03:29:46.961Z,0.00
2017-10-15T03:30:46.954Z,0.00
2017-10-15T03:31:46.948Z,0.00
2017-10-15T03:32:46.938Z,0.00
2017-10-15T03:33:46.931Z,0.00
2017-10-15T03:34:46.921Z,0.00
2017-10-15T03:35:46.914Z,0.00
2017-10-15T03:36:46.905Z,0.00
2017-10-15T03:37:46.907Z,0.00
2017-10-15T03:38:46.889Z,0.00
2017-10-15T03:39:46.881Z,0.00
2017-10-15T03:40:46.895Z,0.00
2017-10-15T03:41:46.886Z,0.00
2017-10-15T03:42:46.859Z,0.00
2017-10-15T03:43:46.852Z,0.00
2017-10-15T03:44:46.846Z,0.00
2017-10-15T03:45:46.832Z,0.00
2017-10-15T03:46:46.825Z,0.00
2017-10-15T03:47:46.819Z,0.00
2017-10-15T03:48:46.810Z,0.00
2017-10-15T03:49:46.802Z,0.00
2017-10-15T03:50:46.793Z,0.00
2017-10-15T03:51:46.787Z,0.00
2017-10-15T03:52:46.777Z,0.00
2017-10-15T03:53:46.774Z,0.00
2017-10-15T03:54:46.763Z,0.00
2017-10-15T03:55:46.753Z,0.00
2017-10-15T03:56:46.746Z,0.00
2017-10-15T03:57:46.741Z,0.00
2017-10-15T03:58:46.731Z,0.00
2017-10-15T03:59:46.721Z,0.00
2017-10-15T04:00:46.715Z,0.00
2017-10-15T04:01:46.714Z,0.00
2017-10-15T04:02:46.697Z,0.00
2017-10-15T04:03:46.691Z,0.00
2017-10-15T04:04:46.684Z,0.00
2017-10-15T04:05:46.674Z,0.00
2017-10-15T04:06:46.667Z,0.00
2017-10-15T04:07:46.657Z,0.00
2017-10-15T04:08:46.650Z,0.00
2017-10-15T04:09:46.645Z,0.00
2017-10-15T04:10:46.634Z,0.00
2017-10-15T04:11:46.626Z,0.00
2017-10-15T04:12:46.618Z,0.00
2017-10-15T04:13:46.612Z,0.00
2017-10-15T04:14:46.600Z,0.00
2017-10-15T04:15:46.594Z,0.00
2017-10-15T04:16:46.586Z,0.00
2017-10-15T04:17:46.579Z,0.00
2017-10-15T04:18:46.579Z,0.00
2017-10-15T04:19:46.562Z,0.00
2017-10-15T04:20:46.553Z,0.00
2017-10-15T04:21:46.549Z,0.00
2017-10-15T04:22:46.543Z,0.00
2017-10-15T04:23:46.533Z,0.00
2017-10-15T04:24:46.525Z,0.00
2017-10-15T04:25:46.514Z,0.00
2017-10-15T04:26:46.504Z,0.00
2017-10-15T04:27:46.495Z,0.00
2017-10-15T04:28:46.488Z,0.00
2017-10-15T04:29:46.482Z,0.00
2017-10-15T04:30:46.477Z,0.00
2017-10-15T04:31:46.464Z,0.00
2017-10-15T04:32:46.457Z,0.00
2017-10-15T04:33:46.458Z,0.00
2017-10-15T04:34:46.438Z,0.00
2017-10-15T04:35:46.431Z,0.00
2017-10-15T04:36:46.430Z,0.00
2017-10-15T04:37:46.425Z,0.00
2017-10-15T04:38:46.407Z,0.00
2017-10-15T04:39:46.403Z,0.00
2017-10-15T04:40:46.390Z,0.00
2017-10-15T04:41:46.383Z,0.00
2017-10-15T04:42:46.374Z,0.00
2017-10-15T04:43:46.388Z,0.00
2017-10-15T04:44:46.358Z,0.00
2017-10-15T04:45:46.353Z,0.00
2017-10-15T04:46:46.340Z,0.00
2017-10-15T04:47:46.333Z,0.00
2017-10-15T04:48:46.326Z,0.00
2017-10-15T04:49:46.321Z,0.00
2017-10-15T04:50:46.312Z,0.00
2017-10-15T04:51:46.302Z,0.00
2017-10-15T04:52:46.292Z,0.00
2017-10-15T04:53:46.293Z,0.00
2017-10-15T04:54:46.278Z,0.00
2017-10-15T04:55:46.269Z,0.00
2017-10-15T04:56:46.260Z,0.00
2017-10-15T04:57:46.260Z,0.00
2017-10-15T04:58:46.243Z,0.00
2017-10-15T04:59:46.239Z,0.00
2017-10-15T05:00:46.228Z,0.00
2017-10-15T05:01:46.224Z,0.00
2017-10-15T05:02:46.209Z,0.00
2017-10-15T05:03:46.204Z,0.00
2017-10-15T05:04:46.193Z,0.00
2017-10-15T05:05:46.186Z,0.00
2017-10-15T05:06:46.185Z,0.00
2017-10-15T05:07:46.171Z,0.00
2017-10-15T05:08:46.162Z,0.00
2017-10-15T05:09:46.160Z,0.00
2017-10-15T05:10:46.150Z,0.00
2017-10-15T05:11:46.137Z,0.00
2017-10-15T05:12:46.128Z,0.00
2017-10-15T05:13:46.120Z,0.00
2017-10-15T05:14:46.112Z,0.00
2017-10-15T05:15:46.103Z,0.00
2017-10-15T05:16:46.094Z,0.00
2017-10-15T05:17:46.091Z,0.00
2017-10-15T05:18:46.077Z,0.00
2017-10-15T05:19:46.070Z,0.00
2017-10-15T05:20:46.064Z,0.00
2017-10-15T05:21:46.054Z,4.00
2017-10-15T05:22:46.045Z,4.00
2017-10-15T05:23:46.039Z,4.00
2017-10-15T05:24:46.029Z,4.00
2017-10-15T05:25:46.021Z,4.00
2017-10-15T05:26:46.015Z,4.00
2017-10-15T05:27:46.004Z,8.00
2017-10-15T05:28:45.999Z,8.00
2017-10-15T05:29:45.988Z,12.00
2017-10-15T05:30:45.980Z,12.00
2017-10-15T05:31:45.971Z,12.00
2017-10-15T05:32:45.962Z,16.00
2017-10-15T05:33:45.954Z,16.00
2017-10-15T05:34:45.946Z,20.00
2017-10-15T05:35:45.941Z,28.00
2017-10-15T05:36:45.930Z,28.00
2017-10-15T05:37:45.918Z,36.00
2017-10-15T05:38:45.911Z,44.00
2017-10-15T05:39:45.905Z,52.00
2017-10-15T05:40:45.895Z,56.00
2017-10-15T05:41:45.886Z,68.00
2017-10-15T05:42:45.880Z,84.00
2017-10-15T05:43:45.870Z,92.00
2017-10-15T05:44:45.862Z,104.00
2017-10-15T05:45:45.854Z,120.00
2017-10-15T05:46:45.844Z,140.00
2017-10-15T05:47:45.837Z,156.00
2017-10-15T05:48:45.828Z,176.00
2017-10-15T05:49:45.818Z,200.00
2017-10-15T05:50:45.811Z,216.00
2017-10-15T05:51:45.802Z,244.00
2017-10-15T05:52:45.794Z,268.00
2017-10-15T05:53:45.791Z,292.00
2017-10-15T05:54:45.778Z,316.00
2017-10-15T05:55:45.770Z,348.00
2017-10-15T05:56:45.761Z,376.00
2017-10-15T05:57:45.755Z,408.00
2017-10-15T05:58:45.743Z,440.00
2017-10-15T05:59:45.735Z,472.00
2017-10-15T06:00:45.727Z,504.00
2017-10-15T06:01:45.724Z,536.00
2017-10-15T06:02:45.709Z,576.00
2017-10-15T06:03:45.702Z,612.00
2017-10-15T06:04:45.692Z,648.00
2017-10-15T06:05:45.693Z,688.00
2017-10-15T06:06:45.675Z,724.00
2017-10-15T06:07:45.669Z,764.00
2017-10-15T06:08:45.660Z,804.00
2017-10-15T06:09:45.650Z,844.00
2017-10-15T06:10:45.642Z,884.00
2017-10-15T06:11:45.634Z,924.00
2017-10-15T06:12:45.631Z,968.00
2017-10-15T06:13:45.619Z,1008.00
2017-10-15T06:14:45.612Z,1052.00
2017-10-15T06:15:45.602Z,1092.00
2017-10-15T06:16:45.605Z,1136.00
2017-10-15T06:17:45.586Z,1176.00
2017-10-15T06:18:45.576Z,1220.00
2017-10-15T06:19:45.567Z,1260.00
2017-10-15T06:20:45.559Z,1300.00
2017-10-15T06:21:45.554Z,1340.00
2017-10-15T06:22:45.540Z,1380.00
2017-10-15T06:23:45.535Z,1416.00
2017-10-15T06:24:45.526Z,1456.00
2017-10-15T06:25:45.525Z,1512.00
2017-10-15T06:26:45.517Z,1540.00
2017-10-15T06:27:45.499Z,1580.00
2017-10-15T06:28:45.492Z,1620.00
2017-10-15T06:29:45.482Z,1656.00
2017-10-15T06:30:45.475Z,1692.00
2017-10-15T06:31:45.465Z,1732.00
2017-10-15T06:32:45.459Z,1772.00
2017-10-15T06:33:45.451Z,1808.00
2017-10-15T06:34:45.439Z,1844.00
2017-10-15T06:35:45.434Z,1888.00
2017-10-15T06:36:45.423Z,1924.00
2017-10-15T06:37:45.417Z,1960.00
2017-10-15T06:38:45.406Z,2000.00
2017-10-15T06:39:45.401Z,2036.00
2017-10-15T06:40:45.391Z,2076.00
2017-10-15T06:41:45.382Z,2112.00
2017-10-15T06:42:45.380Z,2156.00
2017-10-15T06:43:45.366Z,2192.00
2017-10-15T06:44:45.361Z,2228.00
2017-10-15T06:45:45.350Z,2268.00
2017-10-15T06:46:45.341Z,2308.00
2017-10-15T06:47:45.331Z,2340.00
2017-10-15T06:48:45.325Z,2380.00
2017-10-15T06:49:45.316Z,2412.00
2017-10-15T06:50:45.306Z,2448.00
2017-10-15T06:51:45.300Z,2480.00
2017-10-15T06:52:45.292Z,2520.00
2017-10-15T06:53:45.283Z,2548.00
2017-10-15T06:54:45.276Z,2580.00
2017-10-15T06:55:45.265Z,2600.00
2017-10-15T06:56:45.258Z,2632.00
2017-10-15T06:57:45.250Z,2664.00
2017-10-15T06:58:45.241Z,2700.00
2017-10-15T06:59:45.233Z,2740.00
2017-10-15T07:00:45.232Z,2772.00
2017-10-15T07:01:45.220Z,2796.00
2017-10-15T07:02:45.211Z,2824.00
2017-10-15T07:03:45.200Z,2852.00
2017-10-15T07:04:45.193Z,2880.00
2017-10-15T07:05:45.185Z,2920.00
2017-10-15T07:06:45.178Z,2952.00
2017-10-15T07:07:45.176Z,2992.00
2017-10-15T07:08:45.160Z,3028.00
2017-10-15T07:09:45.156Z,3060.00
2017-10-15T07:10:45.145Z,3088.00
2017-10-15T07:11:45.140Z,3112.00
2017-10-15T07:12:45.128Z,3132.00
2017-10-15T07:13:45.121Z,3164.00
2017-10-15T07:14:45.113Z,3200.00
2017-10-15T07:15:45.105Z,3236.00
2017-10-15T07:16:45.095Z,3264.00
2017-10-15T07:17:45.090Z,3284.00
2017-10-15T07:18:45.082Z,3316.00
2017-10-15T07:19:45.070Z,3340.00
2017-10-15T07:20:45.066Z,3368.00
2017-10-15T07:21:45.060Z,3396.00
2017-10-15T07:22:45.047Z,3412.00
2017-10-15T07:23:45.041Z,3440.00
2017-10-15T07:24:45.032Z,3476.00
2017-10-15T07:25:45.028Z,3500.00
2017-10-15T07:26:45.014Z,3532.00
2017-10-15T07:27:45.008Z,3576.00
2017-10-15T07:28:44.999Z,3604.00
2017-10-15T07:29:44.992Z,3636.00
2017-10-15T07:30:44.984Z,3660.00
2017-10-15T07:31:44.975Z,3688.00
2017-10-15T07:32:44.968Z,3736.00
2017-10-15T07:33:44.960Z,3764.00
2017-10-15T07:34:44.954Z,3776.00
2017-10-15T07:35:44.944Z,3816.00
2017-10-15T07:36:44.938Z,3848.00
2017-10-15T07:37:44.927Z,3856.00
2017-10-15T07:38:44.918Z,3892.00
2017-10-15T07:39:44.925Z,3944.00
2017-10-15T07:40:44.905Z,3980.00
2017-10-15T07:41:44.896Z,4004.00
2017-10-15T07:42:44.887Z,4032.00
2017-10-15T07:43:44.881Z,4040.00
2017-10-15T07:44:44.873Z,4080.00
2017-10-15T07:45:44.872Z,4108.00
2017-10-15T07:46:44.857Z,4132.00
2017-10-15T07:47:44.852Z,4168.00
2017-10-15T07:48:44.852Z,4196.00
2017-10-15T07:49:44.832Z,4196.00
2017-10-15T07:50:44.826Z,4228.00
2017-10-15T07:51:44.818Z,4252.00
2017-10-15T07:52:44.810Z,4288.00
2017-10-15T07:53:44.803Z,4308.00
2017-10-15T07:54:44.795Z,4368.00
2017-10-15T07:55:44.786Z,4356.00
2017-10-15T07:56:44.784Z,4376.00
2017-10-15T07:57:44.775Z,4396.00
2017-10-15T07:58:44.763Z,4420.00
2017-10-15T07:59:44.756Z,4472.00
2017-10-15T08:00:44.749Z,4448.00
2017-10-15T08:01:44.741Z,4472.00
2017-10-15T08:02:44.734Z,4464.00
2017-10-15T08:03:44.731Z,4500.00
2017-10-15T08:04:44.718Z,4552.00
2017-10-15T08:05:44.712Z,4556.00
2017-10-15T08:06:44.705Z,4580.00
2017-10-15T08:07:44.696Z,4632.00
2017-10-15T08:08:44.686Z,4652.00
2017-10-15T08:09:44.680Z,4672.00
2017-10-15T08:10:44.672Z,4736.00
2017-10-15T08:11:44.667Z,4760.00
2017-10-15T08:12:44.657Z,4788.00
2017-10-15T08:13:44.656Z,4820.00
2017-10-15T08:14:44.641Z,4844.00
2017-10-15T08:15:44.635Z,4868.00
2017-10-15T08:16:44.628Z,4892.00
2017-10-15T08:17:44.677Z,4884.00
2017-10-15T08:18:44.614Z,4912.00
2017-10-15T08:19:44.606Z,4944.00
2017-10-15T08:20:44.601Z,4944.00
2017-10-15T08:21:44.591Z,4980.00
2017-10-15T08:22:44.584Z,4992.00
2017-10-15T08:23:44.579Z,5068.00
2017-10-15T08:24:44.568Z,5124.00
2017-10-15T08:25:44.561Z,5148.00
2017-10-15T08:26:44.552Z,5168.00
2017-10-15T08:27:44.546Z,5156.00
2017-10-15T08:28:44.553Z,5188.00
2017-10-15T08:29:44.531Z,5244.00
2017-10-15T08:30:44.525Z,5332.00
2017-10-15T08:31:44.520Z,5440.00
2017-10-15T08:32:44.516Z,5664.00
2017-10-15T08:33:44.504Z,6100.00
2017-10-15T08:34:44.494Z,6740.00
2017-10-15T08:35:44.496Z,6472.00
2017-10-15T08:36:44.484Z,6604.00
2017-10-15T08:37:44.478Z,7864.00
2017-10-15T08:38:44.464Z,11132.00
2017-10-15T08:39:44.459Z,8488.00
2017-10-15T08:40:44.451Z,11248.00
2017-10-15T08:41:44.453Z,14056.00
2017-10-15T08:42:44.438Z,16388.00
2017-10-15T08:43:44.436Z,32064.00
2017-10-15T08:44:44.423Z,50432.00
2017-10-15T08:45:44.416Z,52352.00
2017-10-15T08:46:44.413Z,54304.00
2017-10-15T08:47:44.410Z,56384.00
2017-10-15T08:48:44.397Z,60800.00
2017-10-15T08:49:44.390Z,64160.00
2017-10-15T08:50:44.383Z,65280.00
2017-10-15T08:51:44.378Z,64544.00
2017-10-15T08:52:44.375Z,62816.00
2017-10-15T08:53:44.416Z,61120.00
2017-10-15T08:54:44.366Z,59904.00
2017-10-15T08:55:44.359Z,58848.00
2017-10-15T08:56:44.356Z,59872.00
2017-10-15T08:57:44.364Z,60704.00
2017-10-15T08:58:44.351Z,61088.00
2017-10-15T08:59:44.349Z,61056.00
2017-10-15T09:00:44.348Z,61920.00
2017-10-15T09:01:44.342Z,62912.00
2017-10-15T09:02:44.340Z,63328.00
2017-10-15T09:03:44.344Z,63296.00
2017-10-15T09:04:44.340Z,62976.00
2017-10-15T09:05:44.345Z,62112.00
2017-10-15T09:06:44.337Z,61088.00
2017-10-15T09:07:44.337Z,60352.00
2017-10-15T09:08:44.337Z,61824.00
2017-10-15T09:09:44.337Z,61920.00
2017-10-15T09:10:44.337Z,62528.00
2017-10-15T09:11:44.342Z,62528.00
2017-10-15T09:12:44.351Z,63392.00
2017-10-15T09:13:44.340Z,64960.00
2017-10-15T09:14:44.341Z,65952.00
2017-10-15T09:15:44.342Z,66912.00
2017-10-15T09:16:44.344Z,67040.00
2017-10-15T09:17:44.346Z,68576.00
2017-10-15T09:18:44.347Z,68992.00
2017-10-15T09:19:44.351Z,68992.00
2017-10-15T09:20:44.352Z,67840.00
2017-10-15T09:21:44.358Z,66592.00
2017-10-15T09:22:44.356Z,65440.00
2017-10-15T09:23:44.362Z,65024.00
2017-10-15T09:24:44.364Z,67008.00
2017-10-15T09:25:44.367Z,68256.00
2017-10-15T09:26:44.369Z,68992.00
2017-10-15T09:27:44.372Z,69280.00
2017-10-15T09:28:44.402Z,69024.00
2017-10-15T09:29:44.379Z,67744.00
2017-10-15T09:30:44.385Z,66496.00
2017-10-15T09:31:44.387Z,65280.00
2017-10-15T09:32:44.389Z,65824.00
2017-10-15T09:33:44.393Z,68544.00
2017-10-15T09:34:44.397Z,69952.00
2017-10-15T09:35:44.401Z,70304.00
2017-10-15T09:36:44.410Z,69472.00
2017-10-15T09:37:44.412Z,70720.00
2017-10-15T09:38:44.421Z,71680.00
2017-10-15T09:39:44.419Z,72544.00
2017-10-15T09:40:44.424Z,71136.00
2017-10-15T09:41:44.429Z,70080.00
2017-10-15T09:42:44.434Z,67904.00
2017-10-15T09:43:44.442Z,66944.00
2017-10-15T09:44:44.444Z,66720.00
2017-10-15T09:45:44.452Z,67488.00
2017-10-15T09:46:44.453Z,69088.00
2017-10-15T09:47:44.458Z,70432.00
2017-10-15T09:48:44.463Z,72288.00
2017-10-15T09:49:44.468Z,74304.00
2017-10-15T09:50:44.474Z,73888.00
2017-10-15T09:51:44.478Z,72864.00
2017-10-15T09:52:44.483Z,71776.00
2017-10-15T09:53:44.490Z,73184.00
2017-10-15T09:54:44.502Z,73280.00
2017-10-15T09:55:44.506Z,73024.00
2017-10-15T09:56:44.507Z,73824.00
2017-10-15T09:57:44.514Z,75168.00
2017-10-15T09:58:44.519Z,74080.00
2017-10-15T09:59:44.561Z,73344.00
2017-10-15T10:00:44.535Z,73920.00
2017-10-15T10:01:44.537Z,73568.00
2017-10-15T10:02:44.543Z,74560.00
2017-10-15T10:03:44.548Z,76032.00
2017-10-15T10:04:44.555Z,77696.00
2017-10-15T10:05:44.562Z,79136.00
2017-10-15T10:06:44.566Z,78432.00
2017-10-15T10:07:44.574Z,76704.00
2017-10-15T10:08:44.580Z,76544.00
2017-10-15T10:09:44.587Z,75488.00
2017-10-15T10:10:44.594Z,77056.00
2017-10-15T10:11:44.603Z,77824.00
2017-10-15T10:12:44.607Z,77440.00
2017-10-15T10:13:44.618Z,76128.00
2017-10-15T10:14:44.619Z,75712.00
2017-10-15T10:15:44.630Z,75584.00
2017-10-15T10:16:44.636Z,76384.00
2017-10-15T10:17:44.642Z,77376.00
2017-10-15T10:18:44.646Z,76480.00
2017-10-15T10:19:44.653Z,76288.00
2017-10-15T10:20:44.662Z,75584.00
2017-10-15T10:21:44.685Z,75264.00
2017-10-15T10:22:44.677Z,76416.00
2017-10-15T10:23:44.705Z,76928.00
2017-10-15T10:24:44.690Z,75840.00
2017-10-15T10:25:44.698Z,75200.00
2017-10-15T10:26:44.702Z,73600.00
2017-10-15T10:27:44.711Z,72224.00
2017-10-15T10:28:44.718Z,73216.00
2017-10-15T10:29:44.726Z,74784.00
2017-10-15T10:30:44.733Z,76928.00
2017-10-15T10:31:44.741Z,78976.00
2017-10-15T10:32:44.747Z,84096.00
2017-10-15T10:33:44.758Z,85664.00
2017-10-15T10:34:44.764Z,87136.00
2017-10-15T10:35:44.772Z,87168.00
2017-10-15T10:36:44.781Z,86592.00
2017-10-15T10:37:44.791Z,84928.00
2017-10-15T10:38:44.793Z,85760.00
2017-10-15T10:39:44.804Z,85472.00
2017-10-15T10:40:44.811Z,86080.00
2017-10-15T10:41:44.819Z,86624.00
2017-10-15T10:42:44.828Z,88128.00
2017-10-15T10:43:44.835Z,89408.00
2017-10-15T10:44:44.842Z,91584.00
2017-10-15T10:45:44.852Z,91616.00
2017-10-15T10:46:44.860Z,92832.00
2017-10-15T10:47:44.896Z,93440.00
2017-10-15T10:48:44.896Z,92864.00
2017-10-15T10:49:44.898Z,92256.00
2017-10-15T10:50:44.892Z,93088.00
2017-10-15T10:51:44.904Z,91040.00
2017-10-15T10:52:44.911Z,86272.00
2017-10-15T10:53:44.919Z,79264.00
2017-10-15T10:54:44.927Z,73344.00
2017-10-15T10:55:44.938Z,68768.00
2017-10-15T10:56:44.945Z,67936.00
2017-10-15T10:57:44.958Z,58464.00
2017-10-15T10:58:44.966Z,57792.00
2017-10-15T10:59:44.976Z,53344.00
2017-10-15T11:00:44.980Z,50144.00
2017-10-15T11:01:44.989Z,47552.00
2017-10-15T11:02:44.997Z,46560.00
2017-10-15T11:03:45.008Z,51264.00
2017-10-15T11:04:45.023Z,52864.00
2017-10-15T11:05:45.026Z,54240.00
2017-10-15T11:06:45.032Z,63264.00
2017-10-15T11:07:45.040Z,68832.00
2017-10-15T11:08:45.051Z,70368.00
2017-10-15T11:09:45.062Z,73344.00
2017-10-15T11:10:45.069Z,83680.00
2017-10-15T11:11:45.105Z,89664.00
2017-10-15T11:12:45.092Z,94688.00
2017-10-15T11:13:45.099Z,94720.00
2017-10-15T11:14:45.106Z,85888.00
2017-10-15T11:15:45.114Z,83040.00
2017-10-15T11:16:45.123Z,76032.00
2017-10-15T11:17:45.133Z,77664.00
2017-10-15T11:18:45.141Z,82560.00
2017-10-15T11:19:45.152Z,72416.00
2017-10-15T11:20:45.159Z,74080.00
2017-10-15T11:21:45.174Z,82656.00
2017-10-15T11:22:45.180Z,70912.00
2017-10-15T11:23:45.188Z,68128.00
2017-10-15T11:24:45.197Z,66240.00
2017-10-15T11:25:45.205Z,62464.00
2017-10-15T11:26:45.214Z,67936.00
2017-10-15T11:27:45.224Z,64512.00
2017-10-15T11:28:45.235Z,56384.00
2017-10-15T11:29:45.243Z,63808.00
2017-10-15T11:30:45.877Z,65824.00
2017-10-15T11:31:45.259Z,60416.00
2017-10-15T11:32:45.270Z,65216.00
2017-10-15T11:33:45.279Z,72096.00
2017-10-15T11:34:45.289Z,74304.00
2017-10-15T11:35:45.298Z,77824.00
2017-10-15T11:36:45.309Z,76480.00
2017-10-15T11:37:45.326Z,76096.00
2017-10-15T11:38:45.332Z,77728.00
2017-10-15T11:39:45.339Z,81120.00
2017-10-15T11:40:45.344Z,74208.00
2017-10-15T11:41:45.355Z,72032.00
2017-10-15T11:42:45.367Z,69504.00
2017-10-15T11:43:45.375Z,70048.00
2017-10-15T11:44:45.381Z,72864.00
2017-10-15T11:45:45.392Z,83872.00
2017-10-15T11:46:45.398Z,122464.00
2017-10-15T11:47:45.409Z,130528.00
2017-10-15T11:48:45.419Z,109504.00
2017-10-15T11:49:45.428Z,89472.00
2017-10-15T11:50:45.436Z,69440.00
2017-10-15T11:51:45.447Z,48768.00
2017-10-15T11:52:45.456Z,38208.00
2017-10-15T11:53:45.466Z,33312.00
2017-10-15T11:54:45.478Z,28672.00
2017-10-15T11:55:45.486Z,25824.00
2017-10-15T11:56:45.492Z,24448.00
2017-10-15T11:57:45.502Z,23744.00
2017-10-15T11:58:45.511Z,23168.00
2017-10-15T11:59:45.518Z,22784.00
2017-10-15T12:00:45.526Z,22688.00
2017-10-15T12:01:45.536Z,22176.00
2017-10-15T12:02:45.549Z,21888.00
2017-10-15T12:03:45.570Z,21600.00
2017-10-15T12:04:45.564Z,21632.00
2017-10-15T12:05:45.576Z,21440.00
2017-10-15T12:06:45.585Z,21344.00
2017-10-15T12:07:45.590Z,21120.00
2017-10-15T12:08:45.598Z,21056.00
2017-10-15T12:09:45.609Z,20096.00
2017-10-15T12:10:45.617Z,20224.00
2017-10-15T12:11:45.626Z,20384.00
2017-10-15T12:12:45.633Z,20224.00
2017-10-15T12:13:45.642Z,19872.00
2017-10-15T12:14:45.652Z,19712.00
2017-10-15T12:15:45.659Z,19776.00
2017-10-15T12:16:45.669Z,19712.00
2017-10-15T12:17:45.679Z,19392.00
2017-10-15T12:18:45.685Z,19296.00
2017-10-15T12:19:45.700Z,18976.00
2017-10-15T12:20:45.705Z,19072.00
2017-10-15T12:21:45.717Z,18976.00
2017-10-15T12:22:45.725Z,19136.00
2017-10-15T12:23:45.732Z,18912.00
2017-10-15T12:24:45.737Z,18848.00
2017-10-15T12:25:45.751Z,19072.00
2017-10-15T12:26:45.756Z,19104.00
2017-10-15T12:27:45.768Z,18944.00
2017-10-15T12:28:45.776Z,18848.00
2017-10-15T12:29:45.782Z,19168.00
2017-10-15T12:30:45.791Z,19584.00